createdAt,value
2018-01-08T00:02:10.417Z,8.00
2018-01-08T00:04:37.907Z,7.90
2018-01-08T00:07:06.212Z,7.90
2018-01-08T00:09:33.745Z,7.90
2018-01-08T00:12:01.278Z,8.00
2018-01-08T00:14:28.758Z,7.90
2018-01-08T00:16:56.276Z,8.00
2018-01-08T00:19:23.773Z,7.90
2018-01-08T00:21:51.293Z,7.70
2018-01-08T00:24:18.877Z,7.70
2018-01-08T00:26:46.567Z,7.80
2018-01-08T00:29:14.134Z,7.70
2018-01-08T00:31:41.662Z,7.70
2018-01-08T00:34:09.189Z,7.50
2018-01-08T00:36:37.442Z,7.40
2018-01-08T00:39:04.930Z,7.40
2018-01-08T00:41:33.214Z,7.30
2018-01-08T00:44:01.508Z,7.20
2018-01-08T00:46:29.074Z,7.20
2018-01-08T00:48:57.360Z,7.30
2018-01-08T00:51:24.851Z,7.30
2018-01-08T00:53:52.376Z,7.20
2018-01-08T00:56:20.629Z,7.30
2018-01-08T00:58:48.151Z,7.30
2018-01-08T01:01:15.679Z,7.20
2018-01-08T01:03:43.961Z,7.40
2018-01-08T01:06:12.231Z,7.50
2018-01-08T01:08:39.749Z,7.50
2018-01-08T01:11:07.288Z,7.50
2018-01-08T01:13:34.778Z,7.30
2018-01-08T01:16:02.274Z,7.30
2018-01-08T01:18:29.809Z,7.30
2018-01-08T01:20:58.059Z,7.30
2018-01-08T01:23:25.549Z,7.20
2018-01-08T01:25:53.094Z,7.40
2018-01-08T01:28:20.589Z,7.40
2018-01-08T01:30:48.073Z,7.50
2018-01-08T01:33:15.577Z,7.50
2018-01-08T01:35:43.096Z,7.40
2018-01-08T01:38:10.586Z,7.50
2018-01-08T01:40:38.138Z,7.50
2018-01-08T01:43:06.402Z,7.60
2018-01-08T01:45:33.897Z,7.50
2018-01-08T01:48:02.202Z,7.60
2018-01-08T01:50:29.703Z,7.60
2018-01-08T01:52:57.185Z,7.50
2018-01-08T01:55:24.738Z,7.70
2018-01-08T01:57:52.275Z,7.40
2018-01-08T02:00:19.761Z,7.50
2018-01-08T02:02:47.249Z,7.40
2018-01-08T02:05:15.533Z,7.60
2018-01-08T02:07:43.808Z,7.60
2018-01-08T02:10:12.112Z,7.80
2018-01-08T02:12:39.595Z,7.80
2018-01-08T02:15:07.671Z,7.80
2018-01-08T02:17:35.206Z,7.80
2018-01-08T02:20:02.710Z,7.90
2018-01-08T02:22:30.203Z,8.00
2018-01-08T02:24:57.727Z,7.90
2018-01-08T02:27:25.226Z,7.90
2018-01-08T02:29:52.801Z,7.90
2018-01-08T02:32:20.335Z,8.00
2018-01-08T02:34:47.830Z,8.10
2018-01-08T02:37:16.122Z,8.10
2018-01-08T02:39:44.399Z,8.10
2018-01-08T02:42:12.649Z,8.00
2018-01-08T02:44:40.174Z,8.00
2018-01-08T02:47:07.673Z,7.80
2018-01-08T02:49:35.191Z,7.70
2018-01-08T02:52:02.726Z,7.60
2018-01-08T02:54:31.019Z,7.40
2018-01-08T02:56:59.294Z,7.50
2018-01-08T02:59:27.586Z,7.40
2018-01-08T03:01:55.865Z,7.50
2018-01-08T03:04:24.115Z,7.50
2018-01-08T03:06:51.629Z,7.50
2018-01-08T03:09:19.166Z,7.60
2018-01-08T03:11:47.425Z,7.80
2018-01-08T03:14:14.924Z,7.80
2018-01-08T03:16:42.446Z,7.90
2018-01-08T03:19:10.718Z,8.00
2018-01-08T03:21:38.235Z,8.00
2018-01-08T03:24:05.730Z,8.00
2018-01-08T03:26:33.219Z,8.20
2018-01-08T03:29:01.527Z,8.30
2018-01-08T03:31:29.784Z,8.30
2018-01-08T03:33:57.299Z,8.30
2018-01-08T03:36:24.818Z,8.30
2018-01-08T03:38:52.315Z,8.20
2018-01-08T03:41:19.846Z,8.00
2018-01-08T03:43:47.369Z,7.70
2018-01-08T03:46:14.860Z,7.70
2018-01-08T03:48:42.410Z,7.70
2018-01-08T03:51:09.900Z,7.80
2018-01-08T03:53:37.402Z,7.50
2018-01-08T03:56:04.950Z,7.30
2018-01-08T03:58:32.433Z,7.50
2018-01-08T04:00:59.940Z,7.50
2018-01-08T04:03:27.482Z,7.60
2018-01-08T04:05:54.977Z,7.60
2018-01-08T04:08:22.506Z,7.80
2018-01-08T04:10:49.993Z,7.90
2018-01-08T04:13:17.567Z,7.90
2018-01-08T04:15:45.095Z,8.00
2018-01-08T04:18:12.579Z,8.00
2018-01-08T04:20:40.102Z,8.10
2018-01-08T04:23:07.596Z,8.10
2018-01-08T04:25:35.120Z,8.10
2018-01-08T04:28:02.646Z,8.20
2018-01-08T04:30:30.166Z,8.20
2018-01-08T04:32:57.662Z,8.10
2018-01-08T04:35:25.196Z,8.10
2018-01-08T04:37:52.727Z,8.00
2018-01-08T04:40:20.226Z,8.10
2018-01-08T04:42:47.710Z,8.20
2018-01-08T04:45:15.227Z,8.10
2018-01-08T04:47:42.712Z,8.20
2018-01-08T04:50:10.251Z,8.30
2018-01-08T04:52:37.798Z,8.30
2018-01-08T04:55:06.061Z,7.90
2018-01-08T04:57:33.659Z,7.90
2018-01-08T05:00:01.206Z,7.80
2018-01-08T05:02:29.497Z,7.50
2018-01-08T05:04:57.163Z,7.40
2018-01-08T05:07:24.664Z,7.60
2018-01-08T05:09:52.167Z,7.60
2018-01-08T05:12:19.698Z,7.60
2018-01-08T05:14:47.202Z,7.50
2018-01-08T05:17:15.483Z,7.60
2018-01-08T05:19:43.757Z,7.40
2018-01-08T05:22:12.060Z,7.50
2018-01-08T05:24:39.670Z,7.50
2018-01-08T05:27:07.174Z,7.40
2018-01-08T05:29:35.418Z,7.10
2018-01-08T05:32:02.951Z,7.10
2018-01-08T05:34:30.437Z,7.20
2018-01-08T05:36:57.911Z,7.20
2018-01-08T05:39:25.437Z,7.10
2018-01-08T05:41:52.951Z,7.00
2018-01-08T05:44:20.438Z,7.00
2018-01-08T05:46:48.725Z,7.10
2018-01-08T05:49:17.216Z,7.00
2018-01-08T05:51:44.709Z,7.00
2018-01-08T05:54:12.237Z,6.90
2018-01-08T05:56:39.725Z,7.00
2018-01-08T05:59:07.236Z,6.80
2018-01-08T06:01:34.765Z,6.80
2018-01-08T06:04:02.255Z,6.90
2018-01-08T06:06:29.782Z,6.80
2018-01-08T06:08:57.270Z,6.90
2018-01-08T06:11:24.766Z,6.80
2018-01-08T06:13:53.049Z,6.80
2018-01-08T06:16:21.305Z,6.80
2018-01-08T06:18:48.858Z,6.80
2018-01-08T06:21:16.341Z,6.80
2018-01-08T06:23:43.822Z,6.80
2018-01-08T06:26:12.103Z,6.90
2018-01-08T06:28:40.356Z,7.10
2018-01-08T06:31:07.878Z,7.10
2018-01-08T06:33:35.361Z,7.20
2018-01-08T06:36:02.852Z,7.10
2018-01-08T06:38:30.380Z,6.90
2018-01-08T06:40:57.918Z,7.00
2018-01-08T06:43:25.442Z,6.90
2018-01-08T06:45:52.928Z,7.00
2018-01-08T06:48:20.422Z,7.00
2018-01-08T06:50:47.953Z,7.10
2018-01-08T06:53:16.230Z,7.20
2018-01-08T06:55:44.607Z,7.10
2018-01-08T06:58:12.856Z,7.20
2018-01-08T07:00:40.414Z,7.20
2018-01-08T07:03:07.896Z,7.30
2018-01-08T07:05:35.395Z,7.30
2018-01-08T07:08:03.673Z,7.10
2018-01-08T07:10:31.235Z,7.10
2018-01-08T07:12:59.486Z,7.10
2018-01-08T07:15:27.077Z,7.10
2018-01-08T07:17:54.707Z,7.10
2018-01-08T07:20:22.195Z,7.10
2018-01-08T07:22:50.441Z,7.00
2018-01-08T07:25:17.954Z,7.00
2018-01-08T07:27:46.239Z,6.80
2018-01-08T07:30:13.726Z,6.80
2018-01-08T07:32:41.261Z,6.70
2018-01-08T07:35:09.527Z,6.60
2018-01-08T07:37:37.818Z,6.50
2018-01-08T07:40:06.110Z,6.50
2018-01-08T07:42:33.614Z,6.50
2018-01-08T07:45:01.160Z,6.60
2018-01-08T07:47:28.652Z,6.70
2018-01-08T07:49:56.161Z,6.60
2018-01-08T07:52:23.686Z,6.60
2018-01-08T07:54:51.183Z,6.70
2018-01-08T07:57:19.460Z,6.70
2018-01-08T07:59:47.770Z,6.60
2018-01-08T08:02:15.263Z,6.60
2018-01-08T08:04:42.744Z,6.60
2018-01-08T08:07:10.271Z,6.60
2018-01-08T08:09:37.762Z,6.60
2018-01-08T08:12:05.286Z,6.60
2018-01-08T08:14:32.783Z,6.50
2018-01-08T08:17:01.306Z,6.50
2018-01-08T08:19:29.554Z,6.60
2018-01-08T08:21:57.059Z,6.70
2018-01-08T08:24:24.570Z,6.60
2018-01-08T08:26:52.130Z,6.60
2018-01-08T08:29:19.614Z,6.50
2018-01-08T08:31:47.114Z,6.40
2018-01-08T08:34:14.652Z,6.50
2018-01-08T08:36:42.143Z,6.40
2018-01-08T08:39:09.635Z,6.50
2018-01-08T08:41:37.165Z,6.50
2018-01-08T08:44:04.691Z,6.50
2018-01-08T08:46:32.182Z,6.40
2018-01-08T08:49:00.503Z,6.60
2018-01-08T08:51:27.990Z,6.60
2018-01-08T08:53:55.521Z,6.60
2018-01-08T08:56:23.010Z,6.60
2018-01-08T08:58:50.497Z,6.60
2018-01-08T09:01:18.039Z,6.60
2018-01-08T09:03:45.528Z,6.70
2018-01-08T09:06:13.818Z,7.10
2018-01-08T09:08:42.107Z,7.30
2018-01-08T09:11:10.358Z,7.40
2018-01-08T09:13:37.865Z,7.30
2018-01-08T09:16:05.399Z,7.50
2018-01-08T09:18:32.917Z,7.70
2018-01-08T09:21:00.437Z,7.60
2018-01-08T09:23:28.728Z,7.40
2018-01-08T09:25:57.170Z,7.50
2018-01-08T09:28:24.702Z,7.50
2018-01-08T09:30:52.189Z,7.30
2018-01-08T09:33:19.722Z,7.60
2018-01-08T09:35:47.215Z,7.90
2018-01-08T09:38:14.734Z,8.00
2018-01-08T09:40:42.280Z,7.70
2018-01-08T09:43:10.535Z,7.20
2018-01-08T09:45:38.020Z,7.20
2018-01-08T09:48:06.310Z,6.90
2018-01-08T09:50:34.575Z,6.70
2018-01-08T09:53:02.111Z,6.70
2018-01-08T09:55:29.644Z,6.90
2018-01-08T09:57:57.162Z,6.80
2018-01-08T10:00:24.685Z,6.90
2018-01-08T10:03:04.129Z,7.00
2018-01-08T10:05:43.574Z,6.80
2018-01-08T10:08:22.962Z,7.00
2018-01-08T10:11:02.488Z,7.20
2018-01-08T10:13:42.750Z,7.60
2018-01-08T10:16:22.249Z,7.60
2018-01-08T10:18:49.786Z,7.30
2018-01-08T10:21:17.286Z,7.40
2018-01-08T10:23:44.831Z,7.50
2018-01-08T10:26:12.323Z,7.40
2018-01-08T10:28:40.575Z,7.30
2018-01-08T10:31:08.095Z,7.30
2018-01-08T10:33:35.601Z,7.50
2018-01-08T10:36:03.115Z,7.50
2018-01-08T10:38:30.605Z,7.60
2018-01-08T10:40:57.626Z,7.70
2018-01-08T10:43:30.838Z,7.90
2018-01-08T10:46:04.114Z,7.40
2018-01-08T10:48:37.215Z,7.40
2018-01-08T10:51:10.449Z,7.60
2018-01-08T10:53:38.051Z,7.70
2018-01-08T10:56:06.402Z,7.40
2018-01-08T10:58:33.862Z,7.30
2018-01-08T11:01:07.095Z,7.30
2018-01-08T11:03:40.801Z,7.30
2018-01-08T11:06:09.105Z,7.30
2018-01-08T11:08:36.713Z,7.40
2018-01-08T11:11:04.315Z,7.40
2018-01-08T11:13:32.006Z,7.20
2018-01-08T11:15:59.482Z,7.30
2018-01-08T11:18:27.015Z,7.40
2018-01-08T11:20:54.510Z,7.50
2018-01-08T11:23:22.040Z,7.60
2018-01-08T11:25:49.536Z,7.70
2018-01-08T11:28:17.006Z,7.90
2018-01-08T11:30:44.539Z,8.20
2018-01-08T11:33:12.040Z,8.10
2018-01-08T11:35:39.558Z,8.10
2018-01-08T11:38:07.095Z,8.10
2018-01-08T11:40:34.575Z,8.30
2018-01-08T11:43:02.091Z,8.00
2018-01-08T11:45:29.629Z,7.90
2018-01-08T11:47:57.114Z,8.10
2018-01-08T11:50:24.603Z,8.00
2018-01-08T11:52:52.138Z,8.10
2018-01-08T11:55:19.681Z,8.30
2018-01-08T11:57:47.172Z,8.40
2018-01-08T12:00:14.701Z,8.40
2018-01-08T12:02:42.231Z,8.50
2018-01-08T12:05:10.493Z,8.10
2018-01-08T12:07:38.024Z,8.10
2018-01-08T12:10:05.542Z,8.10
2018-01-08T12:12:33.838Z,8.70
2018-01-08T12:15:01.376Z,8.70
2018-01-08T12:17:28.871Z,8.60
2018-01-08T12:19:56.375Z,8.80
2018-01-08T12:22:23.932Z,8.80
2018-01-08T12:24:51.415Z,8.60
2018-01-08T12:27:18.918Z,8.50
2018-01-08T12:29:46.426Z,8.60
2018-01-08T12:32:13.944Z,8.40
2018-01-08T12:34:42.201Z,7.80
2018-01-08T12:37:09.735Z,7.70
2018-01-08T12:39:37.222Z,7.60
2018-01-08T12:42:04.738Z,7.70
2018-01-08T12:44:32.249Z,7.50
2018-01-08T12:46:59.777Z,7.80
2018-01-08T12:49:27.263Z,7.90
2018-01-08T12:51:54.782Z,7.70
2018-01-08T12:54:22.302Z,7.90
2018-01-08T12:56:49.810Z,8.10
2018-01-08T12:59:17.351Z,8.30
2018-01-08T13:01:45.606Z,8.20
2018-01-08T13:04:13.107Z,8.10
2018-01-08T13:06:40.626Z,8.10
2018-01-08T13:09:08.119Z,8.10
2018-01-08T13:11:36.398Z,8.00
2018-01-08T13:14:04.673Z,7.90
2018-01-08T13:16:32.387Z,7.90
2018-01-08T13:18:59.889Z,8.00
2018-01-08T13:21:28.200Z,7.90
2018-01-08T13:23:56.482Z,7.60
2018-01-08T13:26:23.966Z,7.60
2018-01-08T13:28:51.487Z,7.60
2018-01-08T13:31:18.965Z,7.70
2018-01-08T13:33:47.262Z,8.00
2018-01-08T13:36:14.757Z,7.90
2018-01-08T13:38:42.248Z,7.90
2018-01-08T13:41:09.772Z,7.70
2018-01-08T13:43:37.274Z,7.60
2018-01-08T13:46:04.794Z,7.40
2018-01-08T13:48:32.308Z,7.40
2018-01-08T13:50:59.856Z,7.50
2018-01-08T13:53:27.396Z,7.60
2018-01-08T13:55:54.885Z,7.40
2018-01-08T13:58:22.395Z,7.30
2018-01-08T14:00:50.463Z,7.20
2018-01-08T14:03:18.002Z,7.10
2018-01-08T14:05:45.698Z,7.20
2018-01-08T14:08:14.002Z,6.90
2018-01-08T14:10:41.550Z,6.90
2018-01-08T14:13:09.035Z,6.70
2018-01-08T14:15:36.558Z,6.80
2018-01-08T14:18:04.141Z,6.90
2018-01-08T14:20:31.642Z,6.90
2018-01-08T14:22:59.182Z,6.90
2018-01-08T14:25:26.680Z,7.00
2018-01-08T14:27:54.176Z,6.90
2018-01-08T14:30:22.461Z,7.00
2018-01-08T14:32:50.737Z,6.90
2018-01-08T14:35:19.028Z,6.90
2018-01-08T14:37:46.562Z,7.00
2018-01-08T14:40:14.092Z,7.00
2018-01-08T14:42:41.613Z,7.00
2018-01-08T14:45:09.164Z,6.90
2018-01-08T14:47:37.409Z,7.00
2018-01-08T14:50:04.934Z,7.00
2018-01-08T14:52:32.458Z,7.20
2018-01-08T14:54:59.954Z,7.30
2018-01-08T14:57:27.483Z,7.40
2018-01-08T14:59:54.972Z,7.30
2018-01-08T15:02:23.250Z,7.30
2018-01-08T15:04:51.544Z,7.10
2018-01-08T15:10:12.764Z,7.00
2018-01-08T15:12:40.264Z,7.00
2018-01-08T15:15:07.742Z,7.10
2018-01-08T15:17:35.269Z,7.10
2018-01-08T15:20:02.811Z,7.00
2018-01-08T15:22:30.297Z,7.00
2018-01-08T15:24:57.795Z,6.90
2018-01-08T15:27:25.331Z,6.90
2018-01-08T15:29:52.817Z,7.00
2018-01-08T15:32:20.351Z,7.10
2018-01-08T15:34:47.842Z,7.20
2018-01-08T15:37:15.338Z,7.20
2018-01-08T15:39:42.864Z,7.30
2018-01-08T15:42:10.354Z,7.50
2018-01-08T15:44:37.838Z,7.30
2018-01-08T15:47:06.115Z,7.30
2018-01-08T15:49:34.387Z,7.30
2018-01-08T15:52:01.902Z,7.30
2018-01-08T15:54:29.414Z,7.40
2018-01-08T15:56:57.726Z,7.10
2018-01-08T15:59:25.219Z,7.10
2018-01-08T16:01:52.714Z,7.20
2018-01-08T16:04:20.260Z,7.00
2018-01-08T16:06:47.791Z,6.90
2018-01-08T16:09:15.282Z,6.80
2018-01-08T16:11:42.810Z,6.70
2018-01-08T16:14:10.293Z,6.80
2018-01-08T16:16:37.806Z,6.80
2018-01-08T16:19:06.065Z,6.80
2018-01-08T16:21:33.602Z,6.80
2018-01-08T16:24:01.088Z,6.90
2018-01-08T16:26:28.623Z,6.90
2018-01-08T16:28:56.116Z,6.70
2018-01-08T16:31:23.603Z,6.60
2018-01-08T16:33:51.889Z,6.50
2018-01-08T16:36:20.144Z,6.40
2018-01-08T16:38:48.454Z,6.40
2018-01-08T16:41:16.744Z,6.30
2018-01-08T16:43:44.275Z,6.30
2018-01-08T16:46:11.778Z,6.40
2018-01-08T16:48:39.327Z,6.30
2018-01-08T16:51:07.580Z,6.40
2018-01-08T16:53:35.070Z,6.40
2018-01-08T16:56:03.359Z,6.50
2018-01-08T16:58:30.841Z,6.50
2018-01-08T17:00:58.353Z,6.50
2018-01-08T17:03:25.838Z,6.60
2018-01-08T17:05:54.121Z,6.40
2018-01-08T17:08:21.678Z,6.40
2018-01-08T17:10:49.931Z,6.40
2018-01-08T17:13:17.434Z,6.40
2018-01-08T17:15:44.967Z,6.40
2018-01-08T17:18:12.459Z,6.40
2018-01-08T17:20:40.714Z,6.50
2018-01-08T17:23:08.241Z,6.50
2018-01-08T17:25:35.790Z,6.40
2018-01-08T17:28:03.269Z,6.40
2018-01-08T17:30:30.754Z,6.40
2018-01-08T17:32:58.278Z,6.40
2018-01-08T17:35:25.794Z,6.50
2018-01-08T17:37:53.281Z,6.50
2018-01-08T17:40:21.566Z,6.60
2018-01-08T17:42:49.062Z,6.60
2018-01-08T17:45:16.601Z,6.60
2018-01-08T17:47:44.099Z,6.60
2018-01-08T17:50:11.644Z,6.70
2018-01-08T17:52:39.132Z,6.70
2018-01-08T17:55:06.627Z,6.70
2018-01-08T17:57:34.910Z,6.60
2018-01-08T18:00:03.214Z,6.50
2018-01-08T18:02:30.699Z,6.50
2018-01-08T18:04:58.223Z,6.60
2018-01-08T18:07:26.518Z,6.60
2018-01-08T18:09:54.011Z,6.60
2018-01-08T18:12:21.510Z,6.60
2018-01-08T18:14:49.039Z,6.40
2018-01-08T18:17:16.526Z,6.50
2018-01-08T18:19:43.997Z,6.40
2018-01-08T18:22:11.509Z,6.40
2018-01-08T18:24:39.058Z,6.40
2018-01-08T18:27:06.538Z,6.40
2018-01-08T18:29:34.058Z,6.40
2018-01-08T18:32:01.585Z,6.40
2018-01-08T18:34:29.105Z,6.40
2018-01-08T18:36:57.399Z,6.50
2018-01-08T18:39:24.978Z,6.50
2018-01-08T18:41:52.467Z,6.60
2018-01-08T18:44:19.956Z,6.50
2018-01-08T18:46:47.488Z,6.60
2018-01-08T18:49:14.993Z,6.60
2018-01-08T18:51:43.279Z,6.50
2018-01-08T18:54:11.538Z,6.40
2018-01-08T18:56:39.080Z,6.40
2018-01-08T18:59:06.563Z,6.40
2018-01-08T19:01:34.082Z,6.30
2018-01-08T19:04:01.583Z,6.30
2018-01-08T19:06:29.102Z,6.30
2018-01-08T19:08:56.597Z,6.30
2018-01-08T19:11:24.088Z,6.30
2018-01-08T19:13:51.615Z,6.20
2018-01-08T19:16:19.110Z,6.30
2018-01-08T19:18:46.638Z,6.30
2018-01-08T19:21:14.121Z,6.20
2018-01-08T19:23:41.612Z,6.20
2018-01-08T19:26:10.503Z,6.20
2018-01-08T19:28:38.750Z,6.20
2018-01-08T19:31:06.252Z,6.20
2018-01-08T19:33:34.535Z,6.10
2018-01-08T19:36:02.793Z,6.10
2018-01-08T19:38:30.318Z,6.10
2018-01-08T19:40:57.802Z,6.10
2018-01-08T19:43:25.336Z,6.00
2018-01-08T19:45:52.828Z,6.00
2018-01-08T19:48:21.111Z,6.00
2018-01-08T19:50:48.649Z,5.90
2018-01-08T19:53:16.186Z,5.90
2018-01-08T19:55:44.453Z,5.80
2018-01-08T19:58:12.716Z,5.90
2018-01-08T20:00:40.233Z,5.90
2018-01-08T20:03:07.759Z,5.80
2018-01-08T20:05:36.078Z,5.70
2018-01-08T20:08:03.565Z,5.70
2018-01-08T20:10:31.050Z,5.70
2018-01-08T20:12:58.587Z,5.70
2018-01-08T20:15:26.073Z,5.70
2018-01-08T20:17:53.557Z,5.80
2018-01-08T20:20:21.861Z,5.90
2018-01-08T20:22:49.391Z,5.90
2018-01-08T20:25:16.861Z,5.90
2018-01-08T20:27:45.142Z,6.10
2018-01-08T20:30:13.447Z,6.20
2018-01-08T20:32:40.934Z,6.10
2018-01-08T20:35:08.458Z,6.20
2018-01-08T20:37:36.702Z,6.30
2018-01-08T20:40:04.223Z,6.30
2018-01-08T20:42:31.712Z,6.20
2018-01-08T20:44:59.242Z,6.20
2018-01-08T20:47:26.775Z,6.20
2018-01-08T20:49:54.296Z,6.20
2018-01-08T20:52:21.822Z,6.10
2018-01-08T20:54:49.325Z,6.00
2018-01-08T20:57:16.848Z,6.00
2018-01-08T20:59:45.158Z,6.10
2018-01-08T21:02:12.871Z,6.10
2018-01-08T21:04:40.366Z,6.00
2018-01-08T21:07:07.874Z,5.80
2018-01-08T21:09:35.378Z,5.70
2018-01-08T21:12:03.683Z,5.60
2018-01-08T21:14:31.199Z,5.50
2018-01-08T21:16:58.713Z,5.50
2018-01-08T21:19:26.206Z,5.50
2018-01-08T21:21:53.749Z,5.50
2018-01-08T21:24:21.702Z,5.60
2018-01-08T21:26:49.232Z,5.60
2018-01-08T21:29:16.839Z,5.60
2018-01-08T21:31:44.342Z,5.70
2018-01-08T21:34:11.866Z,5.70
2018-01-08T21:36:39.354Z,5.70
2018-01-08T21:39:06.871Z,5.80
2018-01-08T21:41:35.182Z,5.90
2018-01-08T21:44:02.673Z,5.90
2018-01-08T21:46:30.225Z,5.90
2018-01-08T21:48:57.714Z,5.90
2018-01-08T21:51:25.211Z,5.90
2018-01-08T21:53:53.514Z,5.80
2018-01-08T21:56:21.021Z,5.80
2018-01-08T21:58:48.562Z,5.90
2018-01-08T22:01:16.049Z,5.90
2018-01-08T22:03:43.560Z,5.70
2018-01-08T22:06:11.086Z,5.90
2018-01-08T22:08:38.583Z,5.90
2018-01-08T22:11:06.103Z,5.80
2018-01-08T22:13:33.602Z,5.90
2018-01-08T22:16:01.898Z,5.90
2018-01-08T22:18:29.392Z,5.80
2018-01-08T22:20:56.917Z,5.80
2018-01-08T22:23:24.463Z,5.70
2018-01-08T22:25:52.710Z,5.80
2018-01-08T22:28:20.256Z,5.70
2018-01-08T22:30:47.727Z,5.70
2018-01-08T22:33:15.247Z,5.80
2018-01-08T22:35:42.778Z,5.80
2018-01-08T22:38:10.262Z,5.70
2018-01-08T22:40:38.547Z,5.70
2018-01-08T22:43:06.794Z,5.60
2018-01-08T22:45:34.320Z,5.60
2018-01-08T22:48:01.859Z,5.70
2018-01-08T22:50:30.117Z,5.70
2018-01-08T22:52:58.409Z,5.70
2018-01-08T22:55:26.654Z,5.60
2018-01-08T22:57:54.178Z,5.60
2018-01-08T23:00:21.678Z,5.70
2018-01-08T23:02:49.210Z,5.70
2018-01-08T23:05:17.526Z,5.70
2018-01-08T23:07:45.029Z,5.70
2018-01-08T23:10:13.338Z,5.70
2018-01-08T23:12:40.823Z,5.70
2018-01-08T23:15:08.355Z,5.60
2018-01-08T23:17:35.843Z,5.70
2018-01-08T23:20:03.361Z,5.80
2018-01-08T23:22:31.643Z,5.70
2018-01-08T23:24:59.894Z,5.70
2018-01-08T23:27:27.419Z,5.70
2018-01-08T23:29:54.979Z,5.80
2018-01-08T23:32:22.543Z,5.80
2018-01-08T23:34:50.088Z,5.80
2018-01-08T23:37:18.328Z,5.70
2018-01-08T23:39:45.886Z,5.60
2018-01-08T23:42:13.374Z,5.70
2018-01-08T23:44:40.862Z,5.70
2018-01-08T23:47:09.156Z,5.60
2018-01-08T23:49:36.733Z,5.60
2018-01-08T23:52:04.954Z,5.50
2018-01-08T23:54:32.445Z,5.60
2018-01-08T23:57:00.750Z,5.60
2018-01-08T23:59:28.230Z,5.60
